Time,TemperatureF,DewpointF,PressureIn,WindDirection,WindDirectionDegrees,WindSpeedMPH,WindSpeedGustMPH,Humidity,HourlyPrecipIn,Conditions,Clouds,dailyrainin,SoftwareType,DateUTC
2013-01-02 06:00:00,66.0,65.4,30.02,North,351,23.0,37.0,98,0.00,,,0.07,Weather View 32 v70,2013-01-02 16:00:00,
2013-01-02 06:05:00,66.1,65.5,30.02,North,6,27.0,37.0,98,0.00,,,0.07,Weather View 32 v70,2013-01-02 16:05:00,
2013-01-02 06:09:00,66.5,65.6,30.02,North,7,26.0,37.0,97,0.00,,,0.07,Weather View 32 v70,2013-01-02 16:09:00,
2013-01-02 06:10:00,66.5,65.6,30.03,North,355,24.0,37.0,97,0.00,,,0.07,Weather View 32 v70,2013-01-02 16:10:00,
2013-01-02 06:11:00,66.5,65.9,30.03,NNE,12,23.0,37.0,98,0.00,,,0.07,Weather View 32 v70,2013-01-02 16:11:00,
2013-01-02 06:12:00,66.6,66.0,30.02,North,2,34.0,37.0,98,0.00,,,0.07,Weather View 32 v70,2013-01-02 16:12:00,
2013-01-02 06:13:00,66.6,66.0,30.03,North,1,25.0,37.0,98,0.00,,,0.07,Weather View 32 v70,2013-01-02 16:13:00,
2013-01-02 06:14:00,66.6,66.0,30.03,NNW,344,34.0,37.0,98,0.00,,,0.07,Weather View 32 v70,2013-01-02 16:14:00,
2013-01-02 06:15:00,66.6,66.0,30.02,NNE,17,24.0,37.0,98,0.00,,,0.07,Weather View 32 v70,2013-01-02 16:15:00,
2013-01-02 06:16:00,66.5,65.9,30.02,North,357,36.0,37.0,98,0.00,,,0.07,Weather View 32 v70,2013-01-02 16:16:00,
2013-01-02 06:17:00,66.5,65.9,30.02,North,3,27.0,37.0,98,0.00,,,0.07,Weather View 32 v70,2013-01-02 16:17:00,
2013-01-02 06:18:00,66.5,65.9,30.02,East,80,28.0,37.0,98,0.00,,,0.07,Weather View 32 v70,2013-01-02 16:18:00,
2013-01-02 06:19:00,66.6,66.0,30.03,North,6,22.0,37.0,98,0.00,,,0.07,Weather View 32 v70,2013-01-02 16:19:00,
2013-01-02 06:20:00,66.5,65.6,30.03,North,354,19.0,37.0,97,0.00,,,0.07,Weather View 32 v70,2013-01-02 16:20:00,
2013-01-02 06:21:00,66.5,65.6,30.02,NNW,343,19.0,37.0,97,0.00,,,0.07,Weather View 32 v70,2013-01-02 16:21:00,
2013-01-02 06:22:00,66.4,65.5,30.03,NNE,14,29.0,37.0,97,0.00,,,0.07,Weather View 32 v70,2013-01-02 16:22:00,
2013-01-02 06:23:00,66.5,65.6,30.03,North,11,25.0,37.0,97,0.00,,,0.07,Weather View 32 v70,2013-01-02 16:23:00,
2013-01-02 06:24:00,66.5,65.6,30.03,NNW,341,26.0,37.0,97,0.00,,,0.07,Weather View 32 v70,2013-01-02 16:24:00,
2013-01-02 06:25:00,66.5,65.6,30.03,North,6,20.0,37.0,97,0.00,,,0.07,Weather View 32 v70,2013-01-02 16:25:00,
2013-01-02 06:26:00,66.5,65.6,30.04,North,355,26.0,37.0,97,0.00,,,0.07,Weather View 32 v70,2013-01-02 16:26:00,
2013-01-02 06:27:00,66.6,65.7,30.03,North,9,20.0,37.0,97,0.00,,,0.07,Weather View 32 v70,2013-01-02 16:27:00,
2013-01-02 06:30:00,66.8,65.9,30.04,NNW,345,18.0,37.0,97,0.00,,,0.07,Weather View 32 v70,2013-01-02 16:30:00,
2013-01-02 06:37:00,66.6,65.7,30.03,North,358,17.0,37.0,97,0.00,,,0.07,Weather View 32 v70,2013-01-02 16:37:00,
2013-01-02 06:42:00,67.5,65.4,30.04,NNW,341,24.0,37.0,93,0.00,,,0.07,Weather View 32 v70,2013-01-02 16:42:00,
2013-01-02 06:47:00,67.8,65.4,30.04,NNW,344,26.0,37.0,92,0.00,,,0.07,Weather View 32 v70,2013-01-02 16:47:00,
2013-01-02 06:52:00,68.3,64.9,30.03,NNW,338,23.0,37.0,89,0.00,,,0.07,Weather View 32 v70,2013-01-02 16:52:00,
2013-01-02 06:57:00,68.6,64.6,30.02,NNW,337,27.0,37.0,87,0.00,,,0.07,Weather View 32 v70,2013-01-02 16:57:00,
2013-01-02 07:02:00,68.9,64.2,30.02,NW,314,25.0,37.0,85,0.00,,,0.07,Weather View 32 v70,2013-01-02 17:02:00,
2013-01-02 07:07:00,68.8,64.1,30.03,NNW,337,25.0,37.0,85,0.00,,,0.07,Weather View 32 v70,2013-01-02 17:07:00,
2013-01-02 07:12:00,68.3,63.6,30.03,North,6,31.0,37.0,85,0.00,,,0.07,Weather View 32 v70,2013-01-02 17:12:00,
2013-01-02 07:17:00,69.1,63.4,30.04,NW,326,27.0,36.0,82,0.00,,,0.07,Weather View 32 v70,2013-01-02 17:17:00,
2013-01-02 07:22:00,69.0,63.3,30.02,North,351,17.0,36.0,82,0.00,,,0.07,Weather View 32 v70,2013-01-02 17:22:00,
2013-01-02 07:27:00,69.5,62.7,30.03,NNE,12,24.0,36.0,79,0.00,,,0.07,Weather View 32 v70,2013-01-02 17:27:00,
2013-01-02 07:32:00,69.6,62.4,30.02,NNE,26,25.0,36.0,78,0.00,,,0.07,Weather View 32 v70,2013-01-02 17:32:00,
2013-01-02 07:37:00,69.5,62.7,30.02,North,354,29.0,37.0,79,0.00,,,0.07,Weather View 32 v70,2013-01-02 17:37:00,
2013-01-02 07:42:00,68.9,62.8,30.04,North,359,24.0,37.0,81,0.00,,,0.07,Weather View 32 v70,2013-01-02 17:42:00,
2013-01-02 07:47:00,68.5,62.8,30.02,North,357,28.0,37.0,82,0.00,,,0.07,Weather View 32 v70,2013-01-02 17:47:00,
2013-01-02 07:52:00,68.5,63.5,30.02,NNW,330,30.0,37.0,84,0.00,,,0.07,Weather View 32 v70,2013-01-02 17:52:00,
2013-01-02 07:57:00,68.5,63.5,30.04,NNW,348,30.0,38.0,84,0.00,,,0.07,Weather View 32 v70,2013-01-02 17:57:00,
2013-01-02 08:02:00,69.4,63.3,30.03,NNW,342,18.0,38.0,81,0.00,,,0.07,Weather View 32 v70,2013-01-02 18:02:00,
2013-01-02 12:00:00,71.6,63.6,30.03,North,10,29.0,38.0,76,0.00,,,0.07,Weather View 32 v70,2013-01-02 22:00:00,
2013-01-02 12:05:00,71.5,63.5,30.01,NNW,340,27.0,36.0,76,0.00,,,0.07,Weather View 32 v70,2013-01-02 22:05:00,
2013-01-02 12:10:00,71.0,63.8,30.00,NNE,25,27.0,36.0,78,0.00,,,0.07,Weather View 32 v70,2013-01-02 22:10:00,
2013-01-02 12:11:00,70.8,63.9,29.99,NNW,331,24.0,36.0,79,0.00,,,0.07,Weather View 32 v70,2013-01-02 22:11:00,
2013-01-02 12:12:00,70.8,63.9,29.99,NNW,343,28.0,36.0,79,0.00,,,0.07,Weather View 32 v70,2013-01-02 22:12:00,
2013-01-02 12:13:00,70.7,63.8,30.01,NNE,14,18.0,36.0,79,0.00,,,0.07,Weather View 32 v70,2013-01-02 22:13:00,
2013-01-02 12:14:00,70.6,63.7,30.02,North,5,20.0,36.0,79,0.00,,,0.07,Weather View 32 v70,2013-01-02 22:14:00,
2013-01-02 12:15:00,70.5,64.0,30.02,NE,37,20.0,36.0,80,0.00,,,0.07,Weather View 32 v70,2013-01-02 22:15:00,
2013-01-02 12:24:00,70.6,64.1,30.02,NNW,345,27.0,36.0,80,0.00,,,0.07,Weather View 32 v70,2013-01-02 22:24:00,
2013-01-02 12:29:00,69.8,64.7,29.99,North,4,18.0,37.0,84,0.00,,,0.07,Weather View 32 v70,2013-01-02 22:29:00,
2013-01-02 12:34:00,70.2,64.8,30.00,North,5,22.0,37.0,83,0.00,,,0.07,Weather View 32 v70,2013-01-02 22:34:00,
2013-01-02 12:39:00,70.8,64.7,30.01,North,357,29.0,37.0,81,0.00,,,0.07,Weather View 32 v70,2013-01-02 22:39:00,
2013-01-02 12:44:00,70.9,64.4,29.99,NNW,331,24.0,37.0,80,0.00,,,0.07,Weather View 32 v70,2013-01-02 22:44:00,
2013-01-02 12:49:00,71.1,63.9,30.00,North,354,30.0,38.0,78,0.00,,,0.07,Weather View 32 v70,2013-01-02 22:49:00,
2013-01-02 12:54:00,70.9,64.0,29.99,North,351,14.0,38.0,79,0.00,,,0.07,Weather View 32 v70,2013-01-02 22:54:00,
2013-01-02 12:59:00,70.8,63.9,29.99,NNW,343,38.0,38.0,79,0.00,,,0.07,Weather View 32 v70,2013-01-02 22:59:00,
2013-01-02 13:04:00,70.8,63.9,29.98,North,2,30.0,38.0,79,0.00,,,0.07,Weather View 32 v70,2013-01-02 23:04:00,
2013-01-02 13:09:00,70.8,63.6,29.98,North,353,34.0,38.0,78,0.00,,,0.07,Weather View 32 v70,2013-01-02 23:09:00,
2013-01-02 13:14:00,70.7,63.5,29.98,North,360,28.0,39.0,78,0.00,,,0.07,Weather View 32 v70,2013-01-02 23:14:00,
2013-01-02 13:19:00,70.9,64.0,30.00,NNW,347,28.0,39.0,79,0.00,,,0.07,Weather View 32 v70,2013-01-02 23:19:00,
2013-01-02 13:24:00,70.9,63.7,29.96,North,2,24.0,39.0,78,0.00,,,0.07,Weather View 32 v70,2013-01-02 23:24:00,
2013-01-02 13:29:00,70.8,63.6,29.98,NNE,16,14.0,39.0,78,0.00,,,0.07,Weather View 32 v70,2013-01-02 23:29:00,
2013-01-02 13:34:00,70.7,63.8,29.99,North,354,31.0,39.0,79,0.00,,,0.07,Weather View 32 v70,2013-01-02 23:34:00,
2013-01-02 13:39:00,70.2,64.1,29.97,NW,304,27.0,39.0,81,0.00,,,0.07,Weather View 32 v70,2013-01-02 23:39:00,
2013-01-02 13:44:00,70.2,64.1,29.98,NW,322,14.0,39.0,81,0.00,,,0.07,Weather View 32 v70,2013-01-02 23:44:00,
2013-01-02 13:49:00,71.0,64.1,29.98,NW,316,22.0,39.0,79,0.00,,,0.07,Weather View 32 v70,2013-01-02 23:49:00,